Alleyton, Texas
Current Conditions -  °F | °C
As of 1:35 AM on Monday 22 Dec 2014 (Local Time) from K66R Reporting Station
Haze Haze  
Wind Chill: 14°   Ceiling: 400
Heat Index: 14°   Visibility: 5mi
Dew Point: 13°   Wind: 3mph
Humidity: 97%   Direction: 170°S
Pressure: 29.83"   Gusts: NA
Location:  29.71°N, 96.49°W
Report Text: K66R 220735Z AUTO 17003KT 5SM BR OVC004 14/13 A2983 RMK AO2 T01370132
Loading
Personal Weather Stations






























Interactive Weather Map New forecast layout! Learn more

10-Day Weather Forecast

Advertisements
Track Severe Weather on mobile